sensor_id;sensor_type;location;lat;lon;timestamp;pressure;altitude;pressure_sealevel;temperature;humidity
47366;BME280;33105;47.964;7.982;2023-06-19T00:02:27;96423.09;;;20.10;54.97
47366;BME280;33105;47.964;7.982;2023-06-19T00:05:28;96470.97;;;19.55;57.07
47366;BME280;33105;47.964;7.982;2023-06-19T00:08:29;96481.69;;;19.91;56.76
47366;BME280;33105;47.964;7.982;2023-06-19T00:11:31;96501.88;;;20.09;56.19
47366;BME280;33105;47.964;7.982;2023-06-19T00:14:32;96515.47;;;19.93;58.01
47366;BME280;33105;47.964;7.982;2023-06-19T00:17:34;96538.09;;;20.13;57.92
47366;BME280;33105;47.964;7.982;2023-06-19T00:20:38;96558.00;;;20.06;58.33
47366;BME280;33105;47.964;7.982;2023-06-19T00:23:40;96568.94;;;20.11;59.38
47366;BME280;33105;47.964;7.982;2023-06-19T00:26:43;96562.56;;;20.19;59.65
47366;BME280;33105;47.964;7.982;2023-06-19T00:29:48;96553.25;;;20.32;59.84
47366;BME280;33105;47.964;7.982;2023-06-19T00:32:49;96541.69;;;20.22;60.84
47366;BME280;33105;47.964;7.982;2023-06-19T00:35:54;96542.03;;;19.94;62.78
47366;BME280;33105;47.964;7.982;2023-06-19T00:38:56;96539.56;;;20.10;65.15
47366;BME280;33105;47.964;7.982;2023-06-19T00:41:57;96546.75;;;20.11;66.29
47366;BME280;33105;47.964;7.982;2023-06-19T00:44:59;96545.13;;;20.19;66.62
47366;BME280;33105;47.964;7.982;2023-06-19T00:48:00;96534.50;;;20.21;68.18
47366;BME280;33105;47.964;7.982;2023-06-19T00:51:02;96538.91;;;20.13;67.63
47366;BME280;33105;47.964;7.982;2023-06-19T00:54:04;96531.59;;;20.00;69.39
47366;BME280;33105;47.964;7.982;2023-06-19T00:57:07;96534.53;;;19.86;68.96
47366;BME280;33105;47.964;7.982;2023-06-19T01:00:09;96538.97;;;19.79;68.66
47366;BME280;33105;47.964;7.982;2023-06-19T01:03:15;96542.22;;;19.72;69.67
47366;BME280;33105;47.964;7.982;2023-06-19T01:06:21;96553.97;;;19.78;69.20
47366;BME280;33105;47.964;7.982;2023-06-19T01:09:28;96560.81;;;19.72;69.29
47366;BME280;33105;47.964;7.982;2023-06-19T01:12:38;96582.16;;;19.62;71.04
47366;BME280;33105;47.964;7.982;2023-06-19T01:15:41;96572.84;;;19.58;70.32
47366;BME280;33105;47.964;7.982;2023-06-19T01:18:43;96571.06;;;19.54;70.57
47366;BME280;33105;47.964;7.982;2023-06-19T01:21:45;96565.63;;;19.40;70.74
47366;BME280;33105;47.964;7.982;2023-06-19T01:24:46;96560.75;;;19.46;71.68
47366;BME280;33105;47.964;7.982;2023-06-19T01:27:48;96565.16;;;19.55;69.65
47366;BME280;33105;47.964;7.982;2023-06-19T01:30:50;96571.53;;;19.56;69.84
47366;BME280;33105;47.964;7.982;2023-06-19T01:33:53;96581.44;;;19.48;70.70
47366;BME280;33105;47.964;7.982;2023-06-19T01:36:56;96577.19;;;19.42;69.84
47366;BME280;33105;47.964;7.982;2023-06-19T01:39:59;96587.78;;;19.40;70.03
47366;BME280;33105;47.964;7.982;2023-06-19T01:43:01;96594.13;;;19.41;70.66
47366;BME280;33105;47.964;7.982;2023-06-19T01:46:04;96594.31;;;19.44;70.37
47366;BME280;33105;47.964;7.982;2023-06-19T01:49:07;96598.41;;;19.55;70.30
47366;BME280;33105;47.964;7.982;2023-06-19T01:52:10;96607.56;;;19.56;70.56
47366;BME280;33105;47.964;7.982;2023-06-19T01:55:11;96603.63;;;19.48;71.81
47366;BME280;33105;47.964;7.982;2023-06-19T01:58:12;96606.69;;;19.29;72.92
47366;BME280;33105;47.964;7.982;2023-06-19T02:01:17;96609.19;;;19.09;75.57
47366;BME280;33105;47.964;7.982;2023-06-19T02:04:18;96599.06;;;18.95;76.67
47366;BME280;33105;47.964;7.982;2023-06-19T02:07:19;96601.91;;;18.82;80.27
47366;BME280;33105;47.964;7.982;2023-06-19T02:10:22;96592.25;;;19.01;78.44
47366;BME280;33105;47.964;7.982;2023-06-19T02:13:25;96612.66;;;18.83;81.05
47366;BME280;33105;47.964;7.982;2023-06-19T02:16:26;96592.44;;;18.74;81.02
47366;BME280;33105;47.964;7.982;2023-06-19T02:19:27;96577.19;;;18.54;82.73
47366;BME280;33105;47.964;7.982;2023-06-19T02:22:29;96576.81;;;18.47;83.19
47366;BME280;33105;47.964;7.982;2023-06-19T02:25:30;96572.09;;;18.48;83.69
47366;BME280;33105;47.964;7.982;2023-06-19T02:28:31;96571.50;;;18.28;85.94
47366;BME280;33105;47.964;7.982;2023-06-19T02:31:33;96561.19;;;17.98;89.18
47366;BME280;33105;47.964;7.982;2023-06-19T02:34:34;96569.69;;;17.79;91.74
47366;BME280;33105;47.964;7.982;2023-06-19T02:37:36;96564.31;;;17.83;94.01
47366;BME280;33105;47.964;7.982;2023-06-19T02:40:38;96563.84;;;17.81;92.56
47366;BME280;33105;47.964;7.982;2023-06-19T02:43:42;96568.88;;;17.79;93.74
47366;BME280;33105;47.964;7.982;2023-06-19T02:46:44;96566.84;;;17.71;95.96
47366;BME280;33105;47.964;7.982;2023-06-19T02:49:48;96566.13;;;17.65;96.34
47366;BME280;33105;47.964;7.982;2023-06-19T02:52:49;96573.69;;;17.59;96.25
47366;BME280;33105;47.964;7.982;2023-06-19T02:55:51;96567.53;;;17.62;94.99
47366;BME280;33105;47.964;7.982;2023-06-19T02:58:52;96583.75;;;17.55;94.68
47366;BME280;33105;47.964;7.982;2023-06-19T03:01:59;96584.56;;;17.42;98.82
47366;BME280;33105;47.964;7.982;2023-06-19T03:05:02;96581.72;;;17.47;97.35
47366;BME280;33105;47.964;7.982;2023-06-19T03:08:04;96584.06;;;17.40;98.12
47366;BME280;33105;47.964;7.982;2023-06-19T03:11:06;96570.88;;;17.37;100.00
47366;BME280;33105;47.964;7.982;2023-06-19T03:14:07;96565.56;;;17.41;100.00
47366;BME280;33105;47.964;7.982;2023-06-19T03:17:09;96567.22;;;17.28;100.00
47366;BME280;33105;47.964;7.982;2023-06-19T03:20:11;96573.66;;;17.23;100.00
47366;BME280;33105;47.964;7.982;2023-06-19T03:23:16;96576.75;;;17.22;100.00
47366;BME280;33105;47.964;7.982;2023-06-19T03:26:18;96578.78;;;17.16;100.00
47366;BME280;33105;47.964;7.982;2023-06-19T03:29:21;96579.69;;;17.12;100.00
47366;BME280;33105;47.964;7.982;2023-06-19T03:32:30;96574.63;;;17.05;100.00
47366;BME280;33105;47.964;7.982;2023-06-19T03:35:32;96571.63;;;16.88;100.00
47366;BME280;33105;47.964;7.982;2023-06-19T03:38:33;96564.78;;;16.85;100.00
47366;BME280;33105;47.964;7.982;2023-06-19T03:41:34;96568.19;;;16.96;100.00
47366;BME280;33105;47.964;7.982;2023-06-19T03:44:36;96566.44;;;16.86;100.00
47366;BME280;33105;47.964;7.982;2023-06-19T03:47:37;96560.09;;;16.99;100.00
47366;BME280;33105;47.964;7.982;2023-06-19T03:50:38;96561.13;;;17.04;100.00
47366;BME280;33105;47.964;7.982;2023-06-19T03:53:42;96561.13;;;16.90;100.00
47366;BME280;33105;47.964;7.982;2023-06-19T03:56:43;96547.63;;;17.02;100.00
47366;BME280;33105;47.964;7.982;2023-06-19T03:59:45;96542.63;;;17.04;100.00
47366;BME280;33105;47.964;7.982;2023-06-19T04:02:47;96552.53;;;17.05;100.00
47366;BME280;33105;47.964;7.982;2023-06-19T04:05:48;96539.25;;;17.07;100.00
47366;BME280;33105;47.964;7.982;2023-06-19T04:08:51;96536.78;;;17.06;100.00
47366;BME280;33105;47.964;7.982;2023-06-19T04:11:53;96544.31;;;17.14;100.00
47366;BME280;33105;47.964;7.982;2023-06-19T04:14:54;96538.19;;;17.17;100.00
47366;BME280;33105;47.964;7.982;2023-06-19T04:17:55;96541.09;;;16.98;100.00
47366;BME280;33105;47.964;7.982;2023-06-19T04:20:57;96538.44;;;16.93;100.00
47366;BME280;33105;47.964;7.982;2023-06-19T04:23:58;96541.25;;;17.15;100.00
47366;BME280;33105;47.964;7.982;2023-06-19T04:26:59;96533.19;;;17.19;100.00
47366;BME280;33105;47.964;7.982;2023-06-19T04:30:03;96533.91;;;17.24;100.00
47366;BME280;33105;47.964;7.982;2023-06-19T04:33:05;96537.88;;;17.32;100.00
47366;BME280;33105;47.964;7.982;2023-06-19T04:36:07;96534.34;;;17.40;100.00
47366;BME280;33105;47.964;7.982;2023-06-19T04:39:10;96539.25;;;17.43;100.00
47366;BME280;33105;47.964;7.982;2023-06-19T04:42:16;96535.47;;;17.39;100.00
47366;BME280;33105;47.964;7.982;2023-06-19T04:45:21;96535.38;;;17.44;100.00
47366;BME280;33105;47.964;7.982;2023-06-19T04:48:23;96547.97;;;17.37;100.00
47366;BME280;33105;47.964;7.982;2023-06-19T04:51:26;96548.66;;;17.56;100.00
47366;BME280;33105;47.964;7.982;2023-06-19T04:54:27;96543.13;;;17.56;100.00
47366;BME280;33105;47.964;7.982;2023-06-19T04:57:28;96536.50;;;17.43;100.00
47366;BME280;33105;47.964;7.982;2023-06-19T05:00:29;96520.34;;;17.37;100.00
47366;BME280;33105;47.964;7.982;2023-06-19T05:03:31;96520.06;;;17.60;100.00
47366;BME280;33105;47.964;7.982;2023-06-19T05:06:32;96522.56;;;17.48;100.00
47366;BME280;33105;47.964;7.982;2023-06-19T05:09:34;96505.19;;;17.48;100.00
47366;BME280;33105;47.964;7.982;2023-06-19T05:12:35;96503.59;;;17.69;100.00
47366;BME280;33105;47.964;7.982;2023-06-19T05:15:36;96501.72;;;18.00;100.00
47366;BME280;33105;47.964;7.982;2023-06-19T05:18:38;96503.53;;;18.05;98.98
47366;BME280;33105;47.964;7.982;2023-06-19T05:21:39;96504.34;;;17.83;100.00
47366;BME280;33105;47.964;7.982;2023-06-19T05:24:40;96498.66;;;17.80;100.00
47366;BME280;33105;47.964;7.982;2023-06-19T05:27:41;96512.31;;;17.85;100.00
47366;BME280;33105;47.964;7.982;2023-06-19T05:30:43;96497.09;;;18.18;97.34
47366;BME280;33105;47.964;7.982;2023-06-19T05:33:44;96497.53;;;18.12;99.86
47366;BME280;33105;47.964;7.982;2023-06-19T05:36:45;96499.88;;;17.96;100.00
47366;BME280;33105;47.964;7.982;2023-06-19T05:39:48;96499.50;;;17.89;100.00
47366;BME280;33105;47.964;7.982;2023-06-19T05:42:50;96504.91;;;17.94;100.00
47366;BME280;33105;47.964;7.982;2023-06-19T05:45:53;96495.25;;;18.05;100.00
47366;BME280;33105;47.964;7.982;2023-06-19T05:48:54;96512.25;;;18.21;100.00
47366;BME280;33105;47.964;7.982;2023-06-19T05:51:55;96512.88;;;18.49;100.00
47366;BME280;33105;47.964;7.982;2023-06-19T05:55:00;96508.97;;;18.50;100.00
47366;BME280;33105;47.964;7.982;2023-06-19T05:58:02;96519.50;;;18.70;100.00
47366;BME280;33105;47.964;7.982;2023-06-19T06:01:04;96520.00;;;18.81;100.00
47366;BME280;33105;47.964;7.982;2023-06-19T06:04:05;96521.00;;;18.85;100.00
47366;BME280;33105;47.964;7.982;2023-06-19T06:07:07;96516.91;;;18.82;100.00
47366;BME280;33105;47.964;7.982;2023-06-19T06:10:09;96514.28;;;18.68;100.00
47366;BME280;33105;47.964;7.982;2023-06-19T06:13:10;96528.56;;;19.01;100.00
47366;BME280;33105;47.964;7.982;2023-06-19T06:16:12;96515.91;;;19.35;100.00
47366;BME280;33105;47.964;7.982;2023-06-19T06:19:13;96518.38;;;19.80;99.99
47366;BME280;33105;47.964;7.982;2023-06-19T06:22:14;96513.13;;;20.21;90.21
47366;BME280;33105;47.964;7.982;2023-06-19T06:25:16;96526.19;;;20.21;89.99
47366;BME280;33105;47.964;7.982;2023-06-19T06:28:17;96521.34;;;19.92;96.78
47366;BME280;33105;47.964;7.982;2023-06-19T06:31:18;96527.69;;;20.01;96.75
47366;BME280;33105;47.964;7.982;2023-06-19T06:34:20;96530.09;;;20.37;96.25
47366;BME280;33105;47.964;7.982;2023-06-19T06:37:21;96530.28;;;20.15;97.20
47366;BME280;33105;47.964;7.982;2023-06-19T06:40:25;96543.13;;;20.92;90.58
47366;BME280;33105;47.964;7.982;2023-06-19T06:43:27;96551.09;;;21.31;84.81
47366;BME280;33105;47.964;7.982;2023-06-19T06:46:29;96550.72;;;21.03;89.70
47366;BME280;33105;47.964;7.982;2023-06-19T06:49:30;96551.31;;;20.42;94.05
47366;BME280;33105;47.964;7.982;2023-06-19T06:52:31;96565.00;;;20.29;96.12
47366;BME280;33105;47.964;7.982;2023-06-19T06:55:33;96570.00;;;20.62;96.36
47366;BME280;33105;47.964;7.982;2023-06-19T06:58:34;96565.28;;;20.62;97.53
47366;BME280;33105;47.964;7.982;2023-06-19T07:01:35;96565.59;;;20.61;94.35
47366;BME280;33105;47.964;7.982;2023-06-19T07:04:36;96561.06;;;20.30;94.55
47366;BME280;33105;47.964;7.982;2023-06-19T07:07:38;96555.41;;;20.27;95.48
47366;BME280;33105;47.964;7.982;2023-06-19T07:10:39;96559.16;;;20.22;95.34
47366;BME280;33105;47.964;7.982;2023-06-19T07:13:40;96553.13;;;20.20;92.87
47366;BME280;33105;47.964;7.982;2023-06-19T07:16:42;96552.63;;;20.18;94.84
47366;BME280;33105;47.964;7.982;2023-06-19T07:19:43;96550.50;;;20.24;93.77
47366;BME280;33105;47.964;7.982;2023-06-19T07:22:45;96558.94;;;20.36;89.05
47366;BME280;33105;47.964;7.982;2023-06-19T07:25:46;96547.41;;;20.25;86.91
47366;BME280;33105;47.964;7.982;2023-06-19T07:28:48;96558.78;;;20.32;87.72
47366;BME280;33105;47.964;7.982;2023-06-19T07:31:49;96550.59;;;20.62;92.96
47366;BME280;33105;47.964;7.982;2023-06-19T07:34:51;96560.38;;;20.68;92.74
47366;BME280;33105;47.964;7.982;2023-06-19T07:37:52;96559.09;;;20.57;91.79
47366;BME280;33105;47.964;7.982;2023-06-19T07:40:53;96558.47;;;20.43;91.65
47366;BME280;33105;47.964;7.982;2023-06-19T07:43:55;96560.25;;;20.30;90.48
47366;BME280;33105;47.964;7.982;2023-06-19T07:46:56;96561.84;;;20.57;92.45
47366;BME280;33105;47.964;7.982;2023-06-19T07:49:57;96563.63;;;20.79;89.96
47366;BME280;33105;47.964;7.982;2023-06-19T07:52:59;96565.84;;;20.85;89.82
47366;BME280;33105;47.964;7.982;2023-06-19T07:56:00;96574.41;;;20.71;84.52
47366;BME280;33105;47.964;7.982;2023-06-19T07:59:01;96569.72;;;21.01;86.49
47366;BME280;33105;47.964;7.982;2023-06-19T08:02:03;96566.22;;;21.13;85.21
47366;BME280;33105;47.964;7.982;2023-06-19T08:05:04;96559.66;;;21.18;84.19
47366;BME280;33105;47.964;7.982;2023-06-19T08:08:06;96559.19;;;21.16;81.00
47366;BME280;33105;47.964;7.982;2023-06-19T08:11:07;96555.84;;;21.31;78.24
47366;BME280;33105;47.964;7.982;2023-06-19T08:14:09;96565.91;;;21.44;82.57
47366;BME280;33105;47.964;7.982;2023-06-19T08:17:10;96560.38;;;21.44;82.20
47366;BME280;33105;47.964;7.982;2023-06-19T08:20:12;96556.06;;;21.26;79.34
47366;BME280;33105;47.964;7.982;2023-06-19T08:23:13;96559.56;;;21.44;81.35
47366;BME280;33105;47.964;7.982;2023-06-19T08:26:15;96554.00;;;21.64;78.36
47366;BME280;33105;47.964;7.982;2023-06-19T08:29:17;96551.09;;;21.61;78.25
47366;BME280;33105;47.964;7.982;2023-06-19T08:32:19;96551.63;;;21.54;82.80
47366;BME280;33105;47.964;7.982;2023-06-19T08:35:20;96548.38;;;21.52;84.06
47366;BME280;33105;47.964;7.982;2023-06-19T08:38:22;96559.13;;;21.54;79.96
47366;BME280;33105;47.964;7.982;2023-06-19T08:41:23;96554.09;;;21.77;78.10
47366;BME280;33105;47.964;7.982;2023-06-19T08:44:25;96555.09;;;21.93;76.18
47366;BME280;33105;47.964;7.982;2023-06-19T08:47:31;96559.91;;;22.25;74.89
47366;BME280;33105;47.964;7.982;2023-06-19T08:50:33;96556.13;;;22.09;71.67
47366;BME280;33105;47.964;7.982;2023-06-19T08:53:36;96560.06;;;22.08;72.30
47366;BME280;33105;47.964;7.982;2023-06-19T08:56:40;96544.47;;;22.49;72.96
47366;BME280;33105;47.964;7.982;2023-06-19T08:59:48;96546.81;;;22.71;71.34
47366;BME280;33105;47.964;7.982;2023-06-19T09:02:50;96537.00;;;22.86;65.23
47366;BME280;33105;47.964;7.982;2023-06-19T09:05:54;96540.97;;;22.97;61.65
47366;BME280;33105;47.964;7.982;2023-06-19T09:08:59;96536.56;;;23.20;59.67
47366;BME280;33105;47.964;7.982;2023-06-19T09:12:08;96534.34;;;23.38;61.08
47366;BME280;33105;47.964;7.982;2023-06-19T09:15:15;96530.84;;;23.65;56.61
47366;BME280;33105;47.964;7.982;2023-06-19T09:18:16;96532.78;;;23.77;60.10
47366;BME280;33105;47.964;7.982;2023-06-19T09:21:20;96532.88;;;23.93;59.25
47366;BME280;33105;47.964;7.982;2023-06-19T09:24:23;96529.41;;;24.12;49.63
47366;BME280;33105;47.964;7.982;2023-06-19T09:27:32;96523.44;;;24.25;50.03
47366;BME280;33105;47.964;7.982;2023-06-19T09:30:33;96516.28;;;24.40;49.89
47366;BME280;33105;47.964;7.982;2023-06-19T09:33:35;96517.69;;;24.62;47.33
47366;BME280;33105;47.964;7.982;2023-06-19T09:36:37;96519.31;;;24.79;48.28
47366;BME280;33105;47.964;7.982;2023-06-19T09:39:41;96513.75;;;24.94;47.38
47366;BME280;33105;47.964;7.982;2023-06-19T09:42:45;96518.53;;;25.09;50.59
47366;BME280;33105;47.964;7.982;2023-06-19T09:45:59;96507.25;;;25.22;47.97
47366;BME280;33105;47.964;7.982;2023-06-19T09:49:04;96512.88;;;25.57;46.66
47366;BME280;33105;47.964;7.982;2023-06-19T09:52:06;96507.38;;;25.95;42.35
47366;BME280;33105;47.964;7.982;2023-06-19T09:55:09;96513.97;;;26.06;44.25
47366;BME280;33105;47.964;7.982;2023-06-19T09:58:14;96504.19;;;25.97;44.06
47366;BME280;33105;47.964;7.982;2023-06-19T10:01:16;96504.41;;;26.07;43.21
47366;BME280;33105;47.964;7.982;2023-06-19T10:04:21;96500.22;;;26.17;41.40
47366;BME280;33105;47.964;7.982;2023-06-19T10:07:24;96506.81;;;26.28;40.00
47366;BME280;33105;47.964;7.982;2023-06-19T10:10:27;96499.91;;;26.41;40.40
47366;BME280;33105;47.964;7.982;2023-06-19T10:13:34;96493.59;;;26.45;38.52
47366;BME280;33105;47.964;7.982;2023-06-19T10:16:36;96504.81;;;26.90;38.18
47366;BME280;33105;47.964;7.982;2023-06-19T10:19:37;96491.91;;;26.63;39.28
47366;BME280;33105;47.964;7.982;2023-06-19T10:22:49;96492.69;;;26.21;39.60
47366;BME280;33105;47.964;7.982;2023-06-19T10:28:54;96487.72;;;26.53;39.36
47366;BME280;33105;47.964;7.982;2023-06-19T10:31:56;96486.47;;;26.73;38.44
47366;BME280;33105;47.964;7.982;2023-06-19T10:34:57;96482.50;;;26.74;37.31
47366;BME280;33105;47.964;7.982;2023-06-19T10:37:59;96483.63;;;26.70;35.03
47366;BME280;33105;47.964;7.982;2023-06-19T10:41:00;96486.91;;;26.53;35.95
47366;BME280;33105;47.964;7.982;2023-06-19T10:44:03;96478.44;;;26.49;36.30
47366;BME280;33105;47.964;7.982;2023-06-19T10:47:05;96482.56;;;26.78;37.02
47366;BME280;33105;47.964;7.982;2023-06-19T10:50:13;96467.56;;;27.13;35.16
47366;BME280;33105;47.964;7.982;2023-06-19T10:53:31;96476.25;;;27.30;36.21
47366;BME280;33105;47.964;7.982;2023-06-19T10:56:33;96469.44;;;27.31;36.01
47366;BME280;33105;47.964;7.982;2023-06-19T10:59:35;96468.88;;;27.19;34.36
47366;BME280;33105;47.964;7.982;2023-06-19T11:02:37;96477.44;;;27.29;36.11
47366;BME280;33105;47.964;7.982;2023-06-19T11:05:43;96468.81;;;27.41;35.80
47366;BME280;33105;47.964;7.982;2023-06-19T11:08:50;96467.22;;;27.67;35.96
47366;BME280;33105;47.964;7.982;2023-06-19T11:11:52;96470.81;;;27.41;36.16
47366;BME280;33105;47.964;7.982;2023-06-19T11:14:53;96464.38;;;27.40;35.84
47366;BME280;33105;47.964;7.982;2023-06-19T11:17:54;96466.09;;;27.49;36.09
47366;BME280;33105;47.964;7.982;2023-06-19T11:20:56;96458.44;;;27.72;36.61
47366;BME280;33105;47.964;7.982;2023-06-19T11:23:57;96461.16;;;27.38;35.64
47366;BME280;33105;47.964;7.982;2023-06-19T11:26:59;96460.22;;;27.31;35.71
47366;BME280;33105;47.964;7.982;2023-06-19T11:30:01;96456.84;;;27.71;37.50
47366;BME280;33105;47.964;7.982;2023-06-19T11:33:21;96454.72;;;27.38;34.68
47366;BME280;33105;47.964;7.982;2023-06-19T11:36:25;96461.25;;;27.46;37.22
47366;BME280;33105;47.964;7.982;2023-06-19T11:39:27;96450.25;;;27.07;37.69
47366;BME280;33105;47.964;7.982;2023-06-19T11:42:29;96450.63;;;27.32;36.52
47366;BME280;33105;47.964;7.982;2023-06-19T11:45:30;96468.31;;;27.36;38.08
47366;BME280;33105;47.964;7.982;2023-06-19T11:48:36;96455.94;;;27.63;35.77
47366;BME280;33105;47.964;7.982;2023-06-19T11:51:39;96455.22;;;27.70;35.24
47366;BME280;33105;47.964;7.982;2023-06-19T11:54:40;96451.78;;;27.57;36.28
47366;BME280;33105;47.964;7.982;2023-06-19T11:57:42;96449.59;;;27.70;34.96
47366;BME280;33105;47.964;7.982;2023-06-19T12:00:43;96445.31;;;28.13;35.33
47366;BME280;33105;47.964;7.982;2023-06-19T12:03:45;96434.78;;;28.36;35.28
47366;BME280;33105;47.964;7.982;2023-06-19T12:06:46;96443.16;;;28.33;34.44
47366;BME280;33105;47.964;7.982;2023-06-19T12:09:47;96449.13;;;27.98;34.08
47366;BME280;33105;47.964;7.982;2023-06-19T12:12:49;96453.41;;;28.18;34.71
47366;BME280;33105;47.964;7.982;2023-06-19T12:15:50;96445.53;;;28.31;35.07
47366;BME280;33105;47.964;7.982;2023-06-19T12:18:52;96439.69;;;28.47;34.99
47366;BME280;33105;47.964;7.982;2023-06-19T12:21:54;96449.41;;;28.19;34.54
47366;BME280;33105;47.964;7.982;2023-06-19T12:24:55;96444.56;;;28.16;35.91
47366;BME280;33105;47.964;7.982;2023-06-19T12:27:57;96429.81;;;27.89;35.48
47366;BME280;33105;47.964;7.982;2023-06-19T12:30:58;96427.84;;;27.93;36.05
47366;BME280;33105;47.964;7.982;2023-06-19T12:33:59;96431.97;;;28.03;35.56
47366;BME280;33105;47.964;7.982;2023-06-19T12:37:03;96421.72;;;27.84;35.96
47366;BME280;33105;47.964;7.982;2023-06-19T12:40:05;96430.00;;;27.47;37.28
47366;BME280;33105;47.964;7.982;2023-06-19T12:43:12;96433.47;;;27.37;36.78
47366;BME280;33105;47.964;7.982;2023-06-19T12:46:13;96426.00;;;27.48;36.40
47366;BME280;33105;47.964;7.982;2023-06-19T12:49:15;96421.00;;;27.91;37.91
47366;BME280;33105;47.964;7.982;2023-06-19T12:52:16;96419.13;;;27.72;36.43
47366;BME280;33105;47.964;7.982;2023-06-19T12:55:18;96417.22;;;27.50;36.84
47366;BME280;33105;47.964;7.982;2023-06-19T12:58:19;96412.75;;;27.45;38.51
47366;BME280;33105;47.964;7.982;2023-06-19T13:01:20;96413.59;;;27.49;36.77
47366;BME280;33105;47.964;7.982;2023-06-19T13:04:21;96415.19;;;27.47;38.00
47366;BME280;33105;47.964;7.982;2023-06-19T13:07:23;96416.03;;;26.75;36.89
47366;BME280;33105;47.964;7.982;2023-06-19T13:10:24;96411.63;;;26.74;39.62
47366;BME280;33105;47.964;7.982;2023-06-19T13:13:25;96415.06;;;26.87;39.61
47366;BME280;33105;47.964;7.982;2023-06-19T13:16:27;96411.69;;;26.55;37.59
47366;BME280;33105;47.964;7.982;2023-06-19T13:19:28;96415.00;;;26.60;37.96
47366;BME280;33105;47.964;7.982;2023-06-19T13:22:32;96407.97;;;26.70;38.74
47366;BME280;33105;47.964;7.982;2023-06-19T13:25:34;96414.28;;;26.40;38.12
47366;BME280;33105;47.964;7.982;2023-06-19T13:28:36;96416.69;;;26.65;39.07
47366;BME280;33105;47.964;7.982;2023-06-19T13:31:38;96404.69;;;26.41;39.39
47366;BME280;33105;47.964;7.982;2023-06-19T13:34:39;96400.31;;;26.67;39.16
47366;BME280;33105;47.964;7.982;2023-06-19T13:37:41;96395.78;;;26.59;39.57
47366;BME280;33105;47.964;7.982;2023-06-19T13:40:42;96391.22;;;26.51;38.83
47366;BME280;33105;47.964;7.982;2023-06-19T13:43:44;96388.84;;;26.53;38.91
47366;BME280;33105;47.964;7.982;2023-06-19T13:46:46;96389.28;;;26.55;40.41
47366;BME280;33105;47.964;7.982;2023-06-19T13:49:48;96384.16;;;26.83;40.92
47366;BME280;33105;47.964;7.982;2023-06-19T13:52:49;96381.63;;;27.27;40.07
47366;BME280;33105;47.964;7.982;2023-06-19T13:55:51;96378.50;;;27.32;39.38
47366;BME280;33105;47.964;7.982;2023-06-19T13:58:52;96371.81;;;27.40;37.07
47366;BME280;33105;47.964;7.982;2023-06-19T14:01:53;96370.31;;;27.50;35.75
47366;BME280;33105;47.964;7.982;2023-06-19T14:04:55;96360.28;;;27.49;36.76
47366;BME280;33105;47.964;7.982;2023-06-19T14:07:58;96361.03;;;28.09;38.66
47366;BME280;33105;47.964;7.982;2023-06-19T14:10:59;96353.16;;;28.22;37.43
47366;BME280;33105;47.964;7.982;2023-06-19T14:14:01;96358.75;;;28.22;38.13
47366;BME280;33105;47.964;7.982;2023-06-19T14:17:03;96362.78;;;27.88;36.81
47366;BME280;33105;47.964;7.982;2023-06-19T14:20:05;96349.09;;;27.83;37.17
47366;BME280;33105;47.964;7.982;2023-06-19T14:23:07;96361.47;;;27.78;39.51
47366;BME280;33105;47.964;7.982;2023-06-19T14:26:09;96347.94;;;27.87;36.23
47366;BME280;33105;47.964;7.982;2023-06-19T14:29:11;96360.06;;;27.61;37.33
47366;BME280;33105;47.964;7.982;2023-06-19T14:32:16;96353.06;;;27.78;35.81
47366;BME280;33105;47.964;7.982;2023-06-19T14:35:17;96340.81;;;27.93;39.31
47366;BME280;33105;47.964;7.982;2023-06-19T14:38:23;96336.63;;;27.80;39.02
47366;BME280;33105;47.964;7.982;2023-06-19T14:41:28;96331.69;;;28.44;34.82
47366;BME280;33105;47.964;7.982;2023-06-19T14:44:30;96333.31;;;28.49;38.69
47366;BME280;33105;47.964;7.982;2023-06-19T14:47:31;96325.72;;;28.53;37.33
47366;BME280;33105;47.964;7.982;2023-06-19T14:50:34;96326.28;;;28.72;38.91
47366;BME280;33105;47.964;7.982;2023-06-19T14:53:36;96332.28;;;28.23;36.56
47366;BME280;33105;47.964;7.982;2023-06-19T14:56:38;96323.22;;;28.40;35.39
47366;BME280;33105;47.964;7.982;2023-06-19T14:59:39;96326.28;;;28.25;36.03
47366;BME280;33105;47.964;7.982;2023-06-19T15:02:40;96327.81;;;28.19;36.65
47366;BME280;33105;47.964;7.982;2023-06-19T15:05:43;96322.47;;;28.43;35.97
47366;BME280;33105;47.964;7.982;2023-06-19T15:08:44;96325.09;;;28.73;37.84
47366;BME280;33105;47.964;7.982;2023-06-19T15:11:45;96321.69;;;29.01;38.15
47366;BME280;33105;47.964;7.982;2023-06-19T15:14:47;96314.84;;;28.48;36.20
47366;BME280;33105;47.964;7.982;2023-06-19T15:17:48;96314.28;;;28.79;35.89
47366;BME280;33105;47.964;7.982;2023-06-19T15:20:50;96312.56;;;28.64;36.00
47366;BME280;33105;47.964;7.982;2023-06-19T15:23:54;96313.41;;;28.68;36.26
47366;BME280;33105;47.964;7.982;2023-06-19T15:26:59;96312.06;;;29.02;37.97
47366;BME280;33105;47.964;7.982;2023-06-19T15:30:01;96311.22;;;28.98;36.49
47366;BME280;33105;47.964;7.982;2023-06-19T15:33:03;96307.69;;;29.08;36.54
47366;BME280;33105;47.964;7.982;2023-06-19T15:36:04;96296.84;;;29.10;37.15
47366;BME280;33105;47.964;7.982;2023-06-19T15:39:06;96292.66;;;28.83;37.33
47366;BME280;33105;47.964;7.982;2023-06-19T15:42:07;96285.38;;;28.27;35.71
47366;BME280;33105;47.964;7.982;2023-06-19T15:45:09;96284.31;;;28.42;38.61
47366;BME280;33105;47.964;7.982;2023-06-19T15:48:12;96279.72;;;28.24;35.49
47366;BME280;33105;47.964;7.982;2023-06-19T15:51:14;96278.16;;;28.26;38.21
47366;BME280;33105;47.964;7.982;2023-06-19T15:54:16;96273.66;;;28.18;37.79
47366;BME280;33105;47.964;7.982;2023-06-19T15:57:17;96279.13;;;28.04;37.04
47366;BME280;33105;47.964;7.982;2023-06-19T16:00:19;96270.78;;;27.70;37.00
47366;BME280;33105;47.964;7.982;2023-06-19T16:03:21;96266.38;;;27.69;38.80
47366;BME280;33105;47.964;7.982;2023-06-19T16:06:22;96266.91;;;27.86;40.18